sensor_id;sensor_type;location;lat;lon;timestamp;P1;durP1;ratioP1;P2;durP2;ratioP2
38085;SDS011;23896;50.678;10.924;2022-12-18T00:00:07;4.68;;;3.25;;
38085;SDS011;23896;50.678;10.924;2022-12-18T00:03:17;4.78;;;2.95;;
38085;SDS011;23896;50.678;10.924;2022-12-18T00:33:23;7.07;;;4.63;;
38085;SDS011;23896;50.678;10.924;2022-12-18T00:35:50;7.03;;;3.70;;
38085;SDS011;23896;50.678;10.924;2022-12-18T00:38:36;10.18;;;3.15;;
38085;SDS011;23896;50.678;10.924;2022-12-18T00:41:08;5.43;;;3.67;;
38085;SDS011;23896;50.678;10.924;2022-12-18T00:44:07;8.98;;;3.88;;
38085;SDS011;23896;50.678;10.924;2022-12-18T00:46:36;7.30;;;3.65;;
38085;SDS011;23896;50.678;10.924;2022-12-18T00:49:06;6.07;;;4.05;;
38085;SDS011;23896;50.678;10.924;2022-12-18T00:51:39;7.18;;;3.90;;
38085;SDS011;23896;50.678;10.924;2022-12-18T00:54:09;8.18;;;4.60;;
38085;SDS011;23896;50.678;10.924;2022-12-18T00:56:37;7.90;;;4.13;;
38085;SDS011;23896;50.678;10.924;2022-12-18T00:59:04;8.55;;;4.13;;
38085;SDS011;23896;50.678;10.924;2022-12-18T01:01:30;8.73;;;4.20;;
38085;SDS011;23896;50.678;10.924;2022-12-18T01:04:01;7.60;;;4.40;;
38085;SDS011;23896;50.678;10.924;2022-12-18T01:06:29;11.07;;;5.45;;
38085;SDS011;23896;50.678;10.924;2022-12-18T01:08:55;9.10;;;4.97;;
38085;SDS011;23896;50.678;10.924;2022-12-18T01:11:22;10.13;;;5.47;;
38085;SDS011;23896;50.678;10.924;2022-12-18T01:13:51;8.23;;;4.88;;
38085;SDS011;23896;50.678;10.924;2022-12-18T01:16:18;10.00;;;5.22;;
38085;SDS011;23896;50.678;10.924;2022-12-18T01:18:50;8.77;;;4.22;;
38085;SDS011;23896;50.678;10.924;2022-12-18T01:21:17;10.38;;;5.03;;
38085;SDS011;23896;50.678;10.924;2022-12-18T01:23:46;7.10;;;4.03;;
38085;SDS011;23896;50.678;10.924;2022-12-18T01:26:14;10.27;;;4.78;;
38085;SDS011;23896;50.678;10.924;2022-12-18T01:28:46;5.32;;;3.60;;
38085;SDS011;23896;50.678;10.924;2022-12-18T01:31:13;5.28;;;3.30;;
38085;SDS011;23896;50.678;10.924;2022-12-18T01:33:40;4.43;;;3.05;;
38085;SDS011;23896;50.678;10.924;2022-12-18T01:36:07;4.60;;;2.92;;
38085;SDS011;23896;50.678;10.924;2022-12-18T01:38:34;6.70;;;3.28;;
38085;SDS011;23896;50.678;10.924;2022-12-18T01:41:01;6.95;;;2.67;;
38085;SDS011;23896;50.678;10.924;2022-12-18T01:43:44;8.70;;;3.15;;
38085;SDS011;23896;50.678;10.924;2022-12-18T01:46:10;6.63;;;3.10;;
38085;SDS011;23896;50.678;10.924;2022-12-18T01:48:37;7.63;;;3.38;;
38085;SDS011;23896;50.678;10.924;2022-12-18T01:51:05;9.60;;;3.20;;
38085;SDS011;23896;50.678;10.924;2022-12-18T01:53:37;2.88;;;2.35;;
38085;SDS011;23896;50.678;10.924;2022-12-18T01:56:04;4.63;;;3.15;;
38085;SDS011;23896;50.678;10.924;2022-12-18T01:58:49;5.85;;;4.13;;
38085;SDS011;23896;50.678;10.924;2022-12-18T02:01:20;8.65;;;4.07;;
38085;SDS011;23896;50.678;10.924;2022-12-18T02:03:49;5.70;;;4.25;;
38085;SDS011;23896;50.678;10.924;2022-12-18T02:06:38;9.68;;;3.22;;
38085;SDS011;23896;50.678;10.924;2022-12-18T02:09:20;5.95;;;3.33;;
38085;SDS011;23896;50.678;10.924;2022-12-18T02:12:03;7.93;;;3.47;;
38085;SDS011;23896;50.678;10.924;2022-12-18T02:14:38;6.55;;;3.92;;
38085;SDS011;23896;50.678;10.924;2022-12-18T02:17:13;4.73;;;3.67;;
38085;SDS011;23896;50.678;10.924;2022-12-18T02:19:47;5.88;;;3.00;;
38085;SDS011;23896;50.678;10.924;2022-12-18T02:27:32;4.55;;;2.90;;
38085;SDS011;23896;50.678;10.924;2022-12-18T02:30:10;5.65;;;2.83;;
38085;SDS011;23896;50.678;10.924;2022-12-18T02:32:41;6.55;;;2.85;;
38085;SDS011;23896;50.678;10.924;2022-12-18T02:35:11;4.22;;;2.42;;
38085;SDS011;23896;50.678;10.924;2022-12-18T02:37:38;3.83;;;2.17;;
38085;SDS011;23896;50.678;10.924;2022-12-18T02:40:05;2.85;;;2.33;;
38085;SDS011;23896;50.678;10.924;2022-12-18T02:42:32;3.42;;;2.40;;
38085;SDS011;23896;50.678;10.924;2022-12-18T02:45:02;4.53;;;2.55;;
38085;SDS011;23896;50.678;10.924;2022-12-18T02:47:29;3.85;;;2.60;;
38085;SDS011;23896;50.678;10.924;2022-12-18T03:00:39;3.55;;;2.30;;
38085;SDS011;23896;50.678;10.924;2022-12-18T03:05:40;9.05;;;2.90;;
38085;SDS011;23896;50.678;10.924;2022-12-18T03:10:59;4.13;;;2.30;;
38085;SDS011;23896;50.678;10.924;2022-12-18T03:16:00;4.55;;;2.33;;
38085;SDS011;23896;50.678;10.924;2022-12-18T03:20:55;3.03;;;2.05;;
38085;SDS011;23896;50.678;10.924;2022-12-18T03:23:25;4.72;;;3.10;;
38085;SDS011;23896;50.678;10.924;2022-12-18T03:25:57;3.88;;;2.58;;
38085;SDS011;23896;50.678;10.924;2022-12-18T03:28:25;4.45;;;2.58;;
38085;SDS011;23896;50.678;10.924;2022-12-18T03:36:09;5.72;;;3.00;;
38085;SDS011;23896;50.678;10.924;2022-12-18T03:38:36;3.38;;;2.40;;
38085;SDS011;23896;50.678;10.924;2022-12-18T03:46:24;4.55;;;2.10;;
38085;SDS011;23896;50.678;10.924;2022-12-18T03:48:53;3.42;;;2.80;;
38085;SDS011;23896;50.678;10.924;2022-12-18T03:51:39;2.60;;;2.40;;
38085;SDS011;23896;50.678;10.924;2022-12-18T03:57:27;4.75;;;2.65;;
38085;SDS011;23896;50.678;10.924;2022-12-18T03:59:56;3.75;;;2.33;;
38085;SDS011;23896;50.678;10.924;2022-12-18T04:02:25;2.90;;;1.90;;
38085;SDS011;23896;50.678;10.924;2022-12-18T04:04:56;5.25;;;3.05;;
38085;SDS011;23896;50.678;10.924;2022-12-18T04:07:24;4.68;;;2.47;;
38085;SDS011;23896;50.678;10.924;2022-12-18T04:09:52;3.90;;;2.75;;
38085;SDS011;23896;50.678;10.924;2022-12-18T04:12:20;5.30;;;2.10;;
38085;SDS011;23896;50.678;10.924;2022-12-18T04:14:48;4.70;;;2.17;;
38085;SDS011;23896;50.678;10.924;2022-12-18T04:17:18;3.22;;;2.58;;
38085;SDS011;23896;50.678;10.924;2022-12-18T04:19:44;5.85;;;2.70;;
38085;SDS011;23896;50.678;10.924;2022-12-18T04:22:19;3.85;;;2.78;;
38085;SDS011;23896;50.678;10.924;2022-12-18T04:24:46;4.38;;;1.90;;
38085;SDS011;23896;50.678;10.924;2022-12-18T04:27:12;1.70;;;1.50;;
38085;SDS011;23896;50.678;10.924;2022-12-18T04:29:39;4.20;;;2.65;;
38085;SDS011;23896;50.678;10.924;2022-12-18T04:32:06;1.92;;;1.77;;
38085;SDS011;23896;50.678;10.924;2022-12-18T04:34:33;4.15;;;1.85;;
38085;SDS011;23896;50.678;10.924;2022-12-18T04:37:02;5.57;;;1.90;;
38085;SDS011;23896;50.678;10.924;2022-12-18T04:39:29;4.15;;;2.17;;
38085;SDS011;23896;50.678;10.924;2022-12-18T04:41:56;5.63;;;2.03;;
38085;SDS011;23896;50.678;10.924;2022-12-18T04:44:22;4.20;;;1.90;;
38085;SDS011;23896;50.678;10.924;2022-12-18T04:46:49;2.60;;;1.63;;
38085;SDS011;23896;50.678;10.924;2022-12-18T04:49:15;5.93;;;1.30;;
38085;SDS011;23896;50.678;10.924;2022-12-18T04:51:42;2.20;;;1.55;;
38085;SDS011;23896;50.678;10.924;2022-12-18T04:54:09;2.75;;;1.45;;
38085;SDS011;23896;50.678;10.924;2022-12-18T04:56:35;3.63;;;1.98;;
38085;SDS011;23896;50.678;10.924;2022-12-18T04:59:19;3.22;;;1.30;;
38085;SDS011;23896;50.678;10.924;2022-12-18T05:01:45;2.77;;;2.03;;
38085;SDS011;23896;50.678;10.924;2022-12-18T05:04:12;2.33;;;1.73;;
38085;SDS011;23896;50.678;10.924;2022-12-18T05:06:38;2.95;;;2.05;;
38085;SDS011;23896;50.678;10.924;2022-12-18T05:09:04;4.60;;;1.60;;
38085;SDS011;23896;50.678;10.924;2022-12-18T05:11:31;4.13;;;1.52;;
38085;SDS011;23896;50.678;10.924;2022-12-18T05:13:58;4.38;;;2.13;;
38085;SDS011;23896;50.678;10.924;2022-12-18T05:16:24;3.40;;;1.73;;
38085;SDS011;23896;50.678;10.924;2022-12-18T05:18:51;2.03;;;1.50;;
38085;SDS011;23896;50.678;10.924;2022-12-18T05:21:18;3.63;;;1.83;;
38085;SDS011;23896;50.678;10.924;2022-12-18T05:23:48;2.15;;;1.75;;
38085;SDS011;23896;50.678;10.924;2022-12-18T05:26:16;3.92;;;2.22;;
38085;SDS011;23896;50.678;10.924;2022-12-18T05:28:44;4.57;;;2.20;;
38085;SDS011;23896;50.678;10.924;2022-12-18T05:31:14;2.88;;;1.92;;
38085;SDS011;23896;50.678;10.924;2022-12-18T05:33:40;3.78;;;2.03;;
38085;SDS011;23896;50.678;10.924;2022-12-18T05:36:07;3.47;;;1.98;;
38085;SDS011;23896;50.678;10.924;2022-12-18T05:38:35;1.48;;;1.23;;
38085;SDS011;23896;50.678;10.924;2022-12-18T05:41:02;3.13;;;1.70;;
38085;SDS011;23896;50.678;10.924;2022-12-18T05:43:29;2.10;;;1.30;;
38085;SDS011;23896;50.678;10.924;2022-12-18T05:45:56;3.40;;;1.85;;
38085;SDS011;23896;50.678;10.924;2022-12-18T05:48:22;2.92;;;2.10;;
38085;SDS011;23896;50.678;10.924;2022-12-18T05:50:49;2.83;;;1.60;;
38085;SDS011;23896;50.678;10.924;2022-12-18T05:53:17;1.10;;;1.00;;
38085;SDS011;23896;50.678;10.924;2022-12-18T05:55:44;2.35;;;1.70;;
38085;SDS011;23896;50.678;10.924;2022-12-18T05:58:12;2.55;;;1.92;;
38085;SDS011;23896;50.678;10.924;2022-12-18T06:00:39;3.25;;;1.75;;
38085;SDS011;23896;50.678;10.924;2022-12-18T06:03:09;4.32;;;2.22;;
38085;SDS011;23896;50.678;10.924;2022-12-18T06:05:37;5.78;;;2.20;;
38085;SDS011;23896;50.678;10.924;2022-12-18T06:08:05;5.18;;;2.10;;
38085;SDS011;23896;50.678;10.924;2022-12-18T06:10:34;3.45;;;2.00;;
38085;SDS011;23896;50.678;10.924;2022-12-18T06:13:04;3.35;;;1.55;;
38085;SDS011;23896;50.678;10.924;2022-12-18T06:15:31;3.20;;;1.92;;
38085;SDS011;23896;50.678;10.924;2022-12-18T06:18:07;3.60;;;2.30;;
38085;SDS011;23896;50.678;10.924;2022-12-18T06:20:34;2.88;;;1.83;;
38085;SDS011;23896;50.678;10.924;2022-12-18T06:23:02;2.10;;;1.85;;
38085;SDS011;23896;50.678;10.924;2022-12-18T06:28:32;5.78;;;2.50;;
38085;SDS011;23896;50.678;10.924;2022-12-18T06:31:05;4.68;;;2.80;;
38085;SDS011;23896;50.678;10.924;2022-12-18T06:33:32;3.70;;;2.17;;
38085;SDS011;23896;50.678;10.924;2022-12-18T06:36:03;3.58;;;2.08;;
38085;SDS011;23896;50.678;10.924;2022-12-18T06:38:30;3.15;;;2.20;;
38085;SDS011;23896;50.678;10.924;2022-12-18T06:40:57;2.88;;;2.28;;
38085;SDS011;23896;50.678;10.924;2022-12-18T06:43:23;3.17;;;2.47;;
38085;SDS011;23896;50.678;10.924;2022-12-18T06:45:50;5.13;;;2.72;;
38085;SDS011;23896;50.678;10.924;2022-12-18T06:48:22;1.92;;;1.83;;
38085;SDS011;23896;50.678;10.924;2022-12-18T06:50:49;4.70;;;2.00;;
38085;SDS011;23896;50.678;10.924;2022-12-18T06:53:15;3.58;;;2.22;;
38085;SDS011;23896;50.678;10.924;2022-12-18T06:55:50;2.72;;;2.45;;
38085;SDS011;23896;50.678;10.924;2022-12-18T06:58:17;3.08;;;2.30;;
38085;SDS011;23896;50.678;10.924;2022-12-18T07:00:43;1.90;;;1.73;;
38085;SDS011;23896;50.678;10.924;2022-12-18T07:03:10;2.63;;;1.90;;
38085;SDS011;23896;50.678;10.924;2022-12-18T07:05:42;3.55;;;2.28;;
38085;SDS011;23896;50.678;10.924;2022-12-18T07:08:12;7.05;;;2.45;;
38085;SDS011;23896;50.678;10.924;2022-12-18T07:10:42;5.30;;;2.33;;
38085;SDS011;23896;50.678;10.924;2022-12-18T07:13:09;3.63;;;2.38;;
38085;SDS011;23896;50.678;10.924;2022-12-18T07:15:37;2.75;;;2.30;;
38085;SDS011;23896;50.678;10.924;2022-12-18T07:18:06;5.75;;;3.22;;
38085;SDS011;23896;50.678;10.924;2022-12-18T07:20:36;6.32;;;3.75;;
38085;SDS011;23896;50.678;10.924;2022-12-18T07:23:03;6.38;;;3.13;;
38085;SDS011;23896;50.678;10.924;2022-12-18T07:25:48;4.53;;;3.15;;
38085;SDS011;23896;50.678;10.924;2022-12-18T07:28:38;5.82;;;3.60;;
38085;SDS011;23896;50.678;10.924;2022-12-18T07:31:09;5.90;;;3.50;;
38085;SDS011;23896;50.678;10.924;2022-12-18T07:33:36;4.28;;;2.97;;
38085;SDS011;23896;50.678;10.924;2022-12-18T07:36:03;3.58;;;2.63;;
38085;SDS011;23896;50.678;10.924;2022-12-18T07:38:30;4.40;;;2.72;;
38085;SDS011;23896;50.678;10.924;2022-12-18T07:41:00;3.72;;;2.55;;
38085;SDS011;23896;50.678;10.924;2022-12-18T07:43:28;6.65;;;3.40;;
38085;SDS011;23896;50.678;10.924;2022-12-18T07:45:57;4.55;;;2.83;;
38085;SDS011;23896;50.678;10.924;2022-12-18T07:48:28;3.63;;;2.00;;
38085;SDS011;23896;50.678;10.924;2022-12-18T07:50:59;3.92;;;3.00;;
38085;SDS011;23896;50.678;10.924;2022-12-18T07:53:29;4.20;;;2.70;;
38085;SDS011;23896;50.678;10.924;2022-12-18T07:55:58;5.53;;;2.38;;
38085;SDS011;23896;50.678;10.924;2022-12-18T07:58:28;2.92;;;2.60;;
38085;SDS011;23896;50.678;10.924;2022-12-18T08:01:05;5.43;;;3.28;;
38085;SDS011;23896;50.678;10.924;2022-12-18T08:11:45;2.05;;;1.80;;
38085;SDS011;23896;50.678;10.924;2022-12-18T08:14:14;4.20;;;2.63;;
38085;SDS011;23896;50.678;10.924;2022-12-18T08:16:44;4.70;;;3.03;;
38085;SDS011;23896;50.678;10.924;2022-12-18T08:19:25;4.22;;;2.00;;
38085;SDS011;23896;50.678;10.924;2022-12-18T08:21:54;2.75;;;1.50;;
38085;SDS011;23896;50.678;10.924;2022-12-18T08:24:52;5.90;;;1.85;;
38085;SDS011;23896;50.678;10.924;2022-12-18T08:50:37;3.17;;;2.35;;
38085;SDS011;23896;50.678;10.924;2022-12-18T08:53:49;3.88;;;2.30;;
38085;SDS011;23896;50.678;10.924;2022-12-18T09:18:41;3.42;;;2.20;;
38085;SDS011;23896;50.678;10.924;2022-12-18T09:22:05;5.00;;;2.92;;
38085;SDS011;23896;50.678;10.924;2022-12-18T09:24:51;3.75;;;2.85;;
38085;SDS011;23896;50.678;10.924;2022-12-18T09:28:00;3.70;;;2.35;;
38085;SDS011;23896;50.678;10.924;2022-12-18T09:31:13;6.38;;;3.88;;
38085;SDS011;23896;50.678;10.924;2022-12-18T09:34:33;4.32;;;2.60;;
38085;SDS011;23896;50.678;10.924;2022-12-18T09:40:21;4.25;;;3.00;;
38085;SDS011;23896;50.678;10.924;2022-12-18T09:43:35;2.85;;;2.13;;
38085;SDS011;23896;50.678;10.924;2022-12-18T09:46:51;5.13;;;2.42;;
38085;SDS011;23896;50.678;10.924;2022-12-18T09:49:25;2.67;;;2.10;;
38085;SDS011;23896;50.678;10.924;2022-12-18T10:12:41;7.03;;;4.30;;
38085;SDS011;23896;50.678;10.924;2022-12-18T10:24:55;6.38;;;3.55;;
38085;SDS011;23896;50.678;10.924;2022-12-18T10:33:28;15.10;;;7.95;;
38085;SDS011;23896;50.678;10.924;2022-12-18T10:36:17;4.68;;;4.13;;
38085;SDS011;23896;50.678;10.924;2022-12-18T10:38:52;5.95;;;4.43;;
38085;SDS011;23896;50.678;10.924;2022-12-18T10:42:16;9.20;;;4.15;;
38085;SDS011;23896;50.678;10.924;2022-12-18T10:48:25;1.88;;;1.52;;
38085;SDS011;23896;50.678;10.924;2022-12-18T10:50:55;3.85;;;1.67;;
38085;SDS011;23896;50.678;10.924;2022-12-18T10:53:29;5.05;;;2.03;;
38085;SDS011;23896;50.678;10.924;2022-12-18T10:56:13;1.65;;;1.48;;
38085;SDS011;23896;50.678;10.924;2022-12-18T10:59:22;1.95;;;1.58;;
38085;SDS011;23896;50.678;10.924;2022-12-18T11:04:49;1.85;;;1.45;;
38085;SDS011;23896;50.678;10.924;2022-12-18T11:07:24;1.60;;;1.42;;
38085;SDS011;23896;50.678;10.924;2022-12-18T11:10:16;3.80;;;1.77;;
38085;SDS011;23896;50.678;10.924;2022-12-18T11:13:11;1.85;;;1.33;;
38085;SDS011;23896;50.678;10.924;2022-12-18T11:16:35;2.97;;;1.88;;
38085;SDS011;23896;50.678;10.924;2022-12-18T11:34:11;1.30;;;1.00;;
38085;SDS011;23896;50.678;10.924;2022-12-18T11:37:29;1.80;;;1.30;;
38085;SDS011;23896;50.678;10.924;2022-12-18T11:54:43;1.52;;;1.35;;
38085;SDS011;23896;50.678;10.924;2022-12-18T12:14:39;1.80;;;1.50;;
38085;SDS011;23896;50.678;10.924;2022-12-18T12:24:23;2.17;;;1.23;;
38085;SDS011;23896;50.678;10.924;2022-12-18T13:05:56;2.17;;;1.70;;
38085;SDS011;23896;50.678;10.924;2022-12-18T13:08:59;2.40;;;1.10;;
38085;SDS011;23896;50.678;10.924;2022-12-18T13:11:45;1.15;;;1.00;;
38085;SDS011;23896;50.678;10.924;2022-12-18T13:14:46;1.20;;;1.10;;
38085;SDS011;23896;50.678;10.924;2022-12-18T13:21:03;1.80;;;1.60;;
38085;SDS011;23896;50.678;10.924;2022-12-18T13:26:49;4.47;;;3.28;;
38085;SDS011;23896;50.678;10.924;2022-12-18T13:29:47;2.85;;;1.85;;
38085;SDS011;23896;50.678;10.924;2022-12-18T14:02:17;3.25;;;1.77;;
38085;SDS011;23896;50.678;10.924;2022-12-18T14:05:20;1.88;;;1.40;;
38085;SDS011;23896;50.678;10.924;2022-12-18T16:14:50;1.10;;;1.00;;
38085;SDS011;23896;50.678;10.924;2022-12-18T16:18:10;1.20;;;0.90;;
38085;SDS011;23896;50.678;10.924;2022-12-18T16:23:45;1.10;;;0.90;;
38085;SDS011;23896;50.678;10.924;2022-12-18T16:26:43;1.10;;;1.02;;
38085;SDS011;23896;50.678;10.924;2022-12-18T16:29:23;0.98;;;0.90;;
38085;SDS011;23896;50.678;10.924;2022-12-18T16:32:56;0.98;;;0.88;;
38085;SDS011;23896;50.678;10.924;2022-12-18T16:35:53;1.10;;;1.00;;
38085;SDS011;23896;50.678;10.924;2022-12-18T16:38:43;1.13;;;1.00;;
38085;SDS011;23896;50.678;10.924;2022-12-18T17:06:03;1.27;;;1.10;;
38085;SDS011;23896;50.678;10.924;2022-12-18T18:22:03;1.65;;;1.55;;
38085;SDS011;23896;50.678;10.924;2022-12-18T20:23:21;3.95;;;2.80;;
38085;SDS011;23896;50.678;10.924;2022-12-18T20:26:36;3.45;;;2.72;;
38085;SDS011;23896;50.678;10.924;2022-12-18T20:35:26;2.95;;;2.60;;
38085;SDS011;23896;50.678;10.924;2022-12-18T20:38:08;4.35;;;2.80;;
38085;SDS011;23896;50.678;10.924;2022-12-18T20:40:58;3.58;;;2.95;;
38085;SDS011;23896;50.678;10.924;2022-12-18T20:43:41;3.10;;;2.28;;
38085;SDS011;23896;50.678;10.924;2022-12-18T20:46:22;3.42;;;2.70;;
38085;SDS011;23896;50.678;10.924;2022-12-18T20:49:02;5.20;;;3.22;;
38085;SDS011;23896;50.678;10.924;2022-12-18T20:51:43;4.93;;;3.30;;
38085;SDS011;23896;50.678;10.924;2022-12-18T20:54:14;4.03;;;2.95;;
38085;SDS011;23896;50.678;10.924;2022-12-18T20:56:46;2.92;;;2.53;;
38085;SDS011;23896;50.678;10.924;2022-12-18T20:59:22;2.92;;;2.35;;
38085;SDS011;23896;50.678;10.924;2022-12-18T21:02:01;3.50;;;3.20;;
38085;SDS011;23896;50.678;10.924;2022-12-18T21:04:34;4.55;;;3.05;;
38085;SDS011;23896;50.678;10.924;2022-12-18T21:07:10;4.90;;;2.70;;
38085;SDS011;23896;50.678;10.924;2022-12-18T21:09:44;5.05;;;2.95;;
38085;SDS011;23896;50.678;10.924;2022-12-18T21:12:26;5.55;;;3.38;;
38085;SDS011;23896;50.678;10.924;2022-12-18T21:15:01;3.20;;;2.90;;
38085;SDS011;23896;50.678;10.924;2022-12-18T21:20:32;4.03;;;3.13;;
38085;SDS011;23896;50.678;10.924;2022-12-18T21:23:01;5.07;;;3.00;;
38085;SDS011;23896;50.678;10.924;2022-12-18T21:25:31;3.72;;;2.95;;
38085;SDS011;23896;50.678;10.924;2022-12-18T21:27:58;5.00;;;3.50;;
38085;SDS011;23896;50.678;10.924;2022-12-18T21:30:24;4.47;;;3.50;;
38085;SDS011;23896;50.678;10.924;2022-12-18T21:32:54;4.25;;;2.80;;
38085;SDS011;23896;50.678;10.924;2022-12-18T21:35:40;5.95;;;3.10;;
38085;SDS011;23896;50.678;10.924;2022-12-18T21:38:07;6.13;;;3.20;;
38085;SDS011;23896;50.678;10.924;2022-12-18T21:40:59;6.65;;;3.53;;
38085;SDS011;23896;50.678;10.924;2022-12-18T21:43:26;4.45;;;3.13;;
38085;SDS011;23896;50.678;10.924;2022-12-18T21:46:10;5.68;;;3.63;;
38085;SDS011;23896;50.678;10.924;2022-12-18T21:48:37;6.00;;;3.30;;
38085;SDS011;23896;50.678;10.924;2022-12-18T21:51:04;5.50;;;3.92;;
38085;SDS011;23896;50.678;10.924;2022-12-18T21:53:31;6.10;;;3.22;;
38085;SDS011;23896;50.678;10.924;2022-12-18T21:59:24;6.30;;;3.97;;
38085;SDS011;23896;50.678;10.924;2022-12-18T22:01:57;6.38;;;3.60;;
38085;SDS011;23896;50.678;10.924;2022-12-18T22:04:26;4.90;;;3.15;;
38085;SDS011;23896;50.678;10.924;2022-12-18T22:10:02;5.20;;;3.45;;
38085;SDS011;23896;50.678;10.924;2022-12-18T22:12:33;4.45;;;3.45;;
38085;SDS011;23896;50.678;10.924;2022-12-18T22:15:02;6.05;;;3.70;;
38085;SDS011;23896;50.678;10.924;2022-12-18T22:17:30;5.75;;;3.33;;
38085;SDS011;23896;50.678;10.924;2022-12-18T22:20:04;4.93;;;3.15;;
38085;SDS011;23896;50.678;10.924;2022-12-18T22:22:36;5.78;;;3.83;;
38085;SDS011;23896;50.678;10.924;2022-12-18T22:25:10;4.25;;;2.95;;
38085;SDS011;23896;50.678;10.924;2022-12-18T22:27:46;3.65;;;3.00;;
38085;SDS011;23896;50.678;10.924;2022-12-18T22:30:35;4.50;;;3.33;;
38085;SDS011;23896;50.678;10.924;2022-12-18T22:33:04;5.60;;;3.78;;
38085;SDS011;23896;50.678;10.924;2022-12-18T22:35:35;4.75;;;3.83;;
38085;SDS011;23896;50.678;10.924;2022-12-18T22:38:09;6.70;;;3.65;;
38085;SDS011;23896;50.678;10.924;2022-12-18T22:40:42;5.45;;;4.05;;
38085;SDS011;23896;50.678;10.924;2022-12-18T22:43:10;5.47;;;4.33;;
38085;SDS011;23896;50.678;10.924;2022-12-18T22:45:39;6.65;;;4.05;;
38085;SDS011;23896;50.678;10.924;2022-12-18T22:50:51;6.60;;;3.80;;
38085;SDS011;23896;50.678;10.924;2022-12-18T22:53:20;5.90;;;3.75;;
38085;SDS011;23896;50.678;10.924;2022-12-18T22:55:59;5.63;;;3.88;;
38085;SDS011;23896;50.678;10.924;2022-12-18T22:58:25;4.35;;;3.35;;
38085;SDS011;23896;50.678;10.924;2022-12-18T23:00:53;5.22;;;3.88;;
38085;SDS011;23896;50.678;10.924;2022-12-18T23:03:32;5.60;;;3.92;;
38085;SDS011;23896;50.678;10.924;2022-12-18T23:06:08;4.32;;;3.78;;
38085;SDS011;23896;50.678;10.924;2022-12-18T23:08:40;5.10;;;4.20;;
38085;SDS011;23896;50.678;10.924;2022-12-18T23:11:08;4.82;;;3.80;;
38085;SDS011;23896;50.678;10.924;2022-12-18T23:13:44;7.45;;;5.13;;
38085;SDS011;23896;50.678;10.924;2022-12-18T23:16:13;7.47;;;5.35;;
38085;SDS011;23896;50.678;10.924;2022-12-18T23:18:42;6.45;;;4.65;;
38085;SDS011;23896;50.678;10.924;2022-12-18T23:21:11;9.07;;;3.85;;
38085;SDS011;23896;50.678;10.924;2022-12-18T23:23:45;5.68;;;4.20;;
38085;SDS011;23896;50.678;10.924;2022-12-18T23:26:18;5.70;;;3.63;;
38085;SDS011;23896;50.678;10.924;2022-12-18T23:28:44;5.63;;;4.05;;
38085;SDS011;23896;50.678;10.924;2022-12-18T23:33:59;6.32;;;4.32;;
38085;SDS011;23896;50.678;10.924;2022-12-18T23:36:55;5.53;;;4.10;;
38085;SDS011;23896;50.678;10.924;2022-12-18T23:39:33;6.15;;;4.43;;
38085;SDS011;23896;50.678;10.924;2022-12-18T23:44:49;7.40;;;4.85;;
38085;SDS011;23896;50.678;10.924;2022-12-18T23:47:57;8.50;;;3.47;;
38085;SDS011;23896;50.678;10.924;2022-12-18T23:50:41;4.18;;;3.60;;
38085;SDS011;23896;50.678;10.924;2022-12-18T23:53:57;5.35;;;3.92;;
38085;SDS011;23896;50.678;10.924;2022-12-18T23:56:52;7.45;;;4.30;;
